sensor_id;sensor_type;location;lat;lon;timestamp;temperature;humidity
28725;DHT22;43472;48.980;9.646;2023-04-25T00:03:14;10.00;99.90
28725;DHT22;43472;48.980;9.646;2023-04-25T00:08:17;10.00;99.90
28725;DHT22;43472;48.980;9.646;2023-04-25T00:13:19;10.00;99.90
28725;DHT22;43472;48.980;9.646;2023-04-25T00:18:21;9.90;99.90
28725;DHT22;43472;48.980;9.646;2023-04-25T00:23:23;9.90;99.90
28725;DHT22;43472;48.980;9.646;2023-04-25T00:28:25;6.70;99.90
28725;DHT22;43472;48.980;9.646;2023-04-25T00:33:27;9.80;99.90
28725;DHT22;43472;48.980;9.646;2023-04-25T00:38:29;9.90;99.90
28725;DHT22;43472;48.980;9.646;2023-04-25T00:43:32;9.90;99.90
28725;DHT22;43472;48.980;9.646;2023-04-25T00:48:34;9.90;99.90
28725;DHT22;43472;48.980;9.646;2023-04-25T00:53:36;9.90;99.90
28725;DHT22;43472;48.980;9.646;2023-04-25T00:58:38;9.90;99.90
28725;DHT22;43472;48.980;9.646;2023-04-25T01:03:42;9.80;99.90
28725;DHT22;43472;48.980;9.646;2023-04-25T01:08:45;10.40;99.90
28725;DHT22;43472;48.980;9.646;2023-04-25T01:13:47;9.70;99.90
28725;DHT22;43472;48.980;9.646;2023-04-25T01:18:50;9.40;99.90
28725;DHT22;43472;48.980;9.646;2023-04-25T01:23:54;9.30;99.90
28725;DHT22;43472;48.980;9.646;2023-04-25T01:28:56;9.20;99.90
28725;DHT22;43472;48.980;9.646;2023-04-25T01:33:58;7.90;99.90
28725;DHT22;43472;48.980;9.646;2023-04-25T01:39:00;9.30;99.90
28725;DHT22;43472;48.980;9.646;2023-04-25T01:44:03;9.30;99.90
28725;DHT22;43472;48.980;9.646;2023-04-25T01:49:05;9.30;99.90
28725;DHT22;43472;48.980;9.646;2023-04-25T01:54:08;10.00;99.90
28725;DHT22;43472;48.980;9.646;2023-04-25T01:59:10;9.50;99.90
28725;DHT22;43472;48.980;9.646;2023-04-25T02:04:12;12.50;99.90
28725;DHT22;43472;48.980;9.646;2023-04-25T02:09:14;9.60;99.90
28725;DHT22;43472;48.980;9.646;2023-04-25T02:14:16;9.60;99.90
28725;DHT22;43472;48.980;9.646;2023-04-25T02:19:18;9.70;99.90
28725;DHT22;43472;48.980;9.646;2023-04-25T02:24:20;9.70;99.90
28725;DHT22;43472;48.980;9.646;2023-04-25T02:29:22;9.60;99.90
28725;DHT22;43472;48.980;9.646;2023-04-25T02:34:24;9.70;99.90
28725;DHT22;43472;48.980;9.646;2023-04-25T02:39:26;9.70;99.90
28725;DHT22;43472;48.980;9.646;2023-04-25T02:44:28;9.70;99.90
28725;DHT22;43472;48.980;9.646;2023-04-25T02:49:30;9.70;99.90
28725;DHT22;43472;48.980;9.646;2023-04-25T02:54:32;9.50;99.90
28725;DHT22;43472;48.980;9.646;2023-04-25T02:59:34;9.50;99.90
28725;DHT22;43472;48.980;9.646;2023-04-25T03:04:36;9.50;99.90
28725;DHT22;43472;48.980;9.646;2023-04-25T03:09:38;9.60;99.90
28725;DHT22;43472;48.980;9.646;2023-04-25T03:14:40;9.60;99.90
28725;DHT22;43472;48.980;9.646;2023-04-25T03:19:42;9.70;99.90
28725;DHT22;43472;48.980;9.646;2023-04-25T03:24:44;9.60;99.90
28725;DHT22;43472;48.980;9.646;2023-04-25T03:29:46;9.70;99.90
28725;DHT22;43472;48.980;9.646;2023-04-25T03:34:48;9.70;99.90
28725;DHT22;43472;48.980;9.646;2023-04-25T03:39:49;9.60;99.90
28725;DHT22;43472;48.980;9.646;2023-04-25T03:44:52;9.70;99.90
28725;DHT22;43472;48.980;9.646;2023-04-25T03:49:54;10.40;99.90
28725;DHT22;43472;48.980;9.646;2023-04-25T03:54:56;9.70;99.90
28725;DHT22;43472;48.980;9.646;2023-04-25T03:59:58;9.70;99.90
28725;DHT22;43472;48.980;9.646;2023-04-25T04:04:59;9.70;99.90
28725;DHT22;43472;48.980;9.646;2023-04-25T04:10:02;9.70;99.90
28725;DHT22;43472;48.980;9.646;2023-04-25T04:15:05;9.70;99.90
28725;DHT22;43472;48.980;9.646;2023-04-25T04:20:08;9.60;99.90
28725;DHT22;43472;48.980;9.646;2023-04-25T04:25:11;9.50;99.90
28725;DHT22;43472;48.980;9.646;2023-04-25T04:30:13;9.60;99.90
28725;DHT22;43472;48.980;9.646;2023-04-25T04:35:15;9.70;99.90
28725;DHT22;43472;48.980;9.646;2023-04-25T04:40:17;9.60;99.90
28725;DHT22;43472;48.980;9.646;2023-04-25T04:45:19;9.70;99.90
28725;DHT22;43472;48.980;9.646;2023-04-25T04:50:22;9.70;99.90
28725;DHT22;43472;48.980;9.646;2023-04-25T04:55:24;9.70;99.90
28725;DHT22;43472;48.980;9.646;2023-04-25T05:00:28;9.60;99.90
28725;DHT22;43472;48.980;9.646;2023-04-25T05:05:31;9.70;99.90
28725;DHT22;43472;48.980;9.646;2023-04-25T05:10:33;9.60;99.90
28725;DHT22;43472;48.980;9.646;2023-04-25T05:15:34;9.70;99.90
28725;DHT22;43472;48.980;9.646;2023-04-25T05:20:36;9.80;99.90
28725;DHT22;43472;48.980;9.646;2023-04-25T05:25:38;9.80;99.90
28725;DHT22;43472;48.980;9.646;2023-04-25T05:30:40;9.40;99.90
28725;DHT22;43472;48.980;9.646;2023-04-25T05:35:42;9.60;99.90
28725;DHT22;43472;48.980;9.646;2023-04-25T05:40:44;9.70;99.90
28725;DHT22;43472;48.980;9.646;2023-04-25T05:45:46;9.50;99.90
28725;DHT22;43472;48.980;9.646;2023-04-25T05:50:48;9.40;99.90
28725;DHT22;43472;48.980;9.646;2023-04-25T05:55:50;9.40;99.90
28725;DHT22;43472;48.980;9.646;2023-04-25T06:00:52;9.60;99.90
28725;DHT22;43472;48.980;9.646;2023-04-25T06:05:54;9.90;99.90
28725;DHT22;43472;48.980;9.646;2023-04-25T06:10:55;10.00;99.90
28725;DHT22;43472;48.980;9.646;2023-04-25T06:15:57;10.10;99.90
28725;DHT22;43472;48.980;9.646;2023-04-25T06:20:59;9.80;99.90
28725;DHT22;43472;48.980;9.646;2023-04-25T06:26:01;9.60;99.90
28725;DHT22;43472;48.980;9.646;2023-04-25T06:31:03;9.90;99.90
28725;DHT22;43472;48.980;9.646;2023-04-25T06:36:06;10.20;99.90
28725;DHT22;43472;48.980;9.646;2023-04-25T06:41:08;10.20;99.90
28725;DHT22;43472;48.980;9.646;2023-04-25T06:46:10;10.20;99.90
28725;DHT22;43472;48.980;9.646;2023-04-25T06:51:12;10.20;99.90
28725;DHT22;43472;48.980;9.646;2023-04-25T06:56:15;10.30;99.90
28725;DHT22;43472;48.980;9.646;2023-04-25T07:01:20;10.50;99.90
28725;DHT22;43472;48.980;9.646;2023-04-25T07:06:22;10.70;99.90
28725;DHT22;43472;48.980;9.646;2023-04-25T07:11:24;11.20;99.90
28725;DHT22;43472;48.980;9.646;2023-04-25T07:16:26;10.20;99.90
28725;DHT22;43472;48.980;9.646;2023-04-25T07:21:28;10.40;99.90
28725;DHT22;43472;48.980;9.646;2023-04-25T07:26:30;10.20;99.90
28725;DHT22;43472;48.980;9.646;2023-04-25T07:31:32;10.10;99.90
28725;DHT22;43472;48.980;9.646;2023-04-25T07:36:34;10.40;99.90
28725;DHT22;43472;48.980;9.646;2023-04-25T07:41:36;10.90;99.90
28725;DHT22;43472;48.980;9.646;2023-04-25T07:46:38;11.50;99.90
28725;DHT22;43472;48.980;9.646;2023-04-25T07:51:40;10.50;99.90
28725;DHT22;43472;48.980;9.646;2023-04-25T07:56:42;10.90;99.90
28725;DHT22;43472;48.980;9.646;2023-04-25T08:01:53;11.00;99.90
28725;DHT22;43472;48.980;9.646;2023-04-25T08:06:55;11.20;99.90
28725;DHT22;43472;48.980;9.646;2023-04-25T08:11:57;10.80;99.90
28725;DHT22;43472;48.980;9.646;2023-04-25T08:16:59;10.90;99.90
28725;DHT22;43472;48.980;9.646;2023-04-25T08:22:01;11.10;99.90
28725;DHT22;43472;48.980;9.646;2023-04-25T08:27:03;10.90;99.90
28725;DHT22;43472;48.980;9.646;2023-04-25T08:32:04;11.50;99.90
28725;DHT22;43472;48.980;9.646;2023-04-25T08:37:06;11.40;99.90
28725;DHT22;43472;48.980;9.646;2023-04-25T08:42:08;11.10;99.90
28725;DHT22;43472;48.980;9.646;2023-04-25T08:47:11;11.40;99.90
28725;DHT22;43472;48.980;9.646;2023-04-25T08:52:14;11.40;99.90
28725;DHT22;43472;48.980;9.646;2023-04-25T08:57:17;11.10;99.90
28725;DHT22;43472;48.980;9.646;2023-04-25T09:02:20;11.90;99.90
28725;DHT22;43472;48.980;9.646;2023-04-25T09:07:22;11.90;99.90
28725;DHT22;43472;48.980;9.646;2023-04-25T09:12:24;12.10;99.90
28725;DHT22;43472;48.980;9.646;2023-04-25T09:17:27;11.90;99.90
28725;DHT22;43472;48.980;9.646;2023-04-25T09:22:30;11.80;99.90
28725;DHT22;43472;48.980;9.646;2023-04-25T09:27:32;11.70;99.90
28725;DHT22;43472;48.980;9.646;2023-04-25T09:32:34;11.40;99.90
28725;DHT22;43472;48.980;9.646;2023-04-25T09:37:36;11.60;99.90
28725;DHT22;43472;48.980;9.646;2023-04-25T09:42:41;11.70;99.90
28725;DHT22;43472;48.980;9.646;2023-04-25T09:47:43;11.80;99.90
28725;DHT22;43472;48.980;9.646;2023-04-25T09:53:03;11.90;99.90
28725;DHT22;43472;48.980;9.646;2023-04-25T09:58:05;11.90;99.90
28725;DHT22;43472;48.980;9.646;2023-04-25T10:03:11;11.80;99.90
28725;DHT22;43472;48.980;9.646;2023-04-25T10:08:14;12.00;99.90
28725;DHT22;43472;48.980;9.646;2023-04-25T10:13:18;11.90;99.90
28725;DHT22;43472;48.980;9.646;2023-04-25T10:23:23;11.90;99.90
28725;DHT22;43472;48.980;9.646;2023-04-25T10:28:25;12.50;99.90
28725;DHT22;43472;48.980;9.646;2023-04-25T10:33:38;12.50;99.90
28725;DHT22;43472;48.980;9.646;2023-04-25T10:38:42;12.10;99.90
28725;DHT22;43472;48.980;9.646;2023-04-25T10:43:45;12.10;99.90
28725;DHT22;43472;48.980;9.646;2023-04-25T10:48:48;11.50;99.90
28725;DHT22;43472;48.980;9.646;2023-04-25T10:54:04;11.00;99.90
28725;DHT22;43472;48.980;9.646;2023-04-25T11:04:24;10.40;99.90
28725;DHT22;43472;48.980;9.646;2023-04-25T11:09:27;10.30;99.90
28725;DHT22;43472;48.980;9.646;2023-04-25T11:14:29;10.10;99.90
28725;DHT22;43472;48.980;9.646;2023-04-25T11:19:32;10.10;99.90
28725;DHT22;43472;48.980;9.646;2023-04-25T11:24:35;10.20;99.90
28725;DHT22;43472;48.980;9.646;2023-04-25T11:29:37;10.40;99.90
28725;DHT22;43472;48.980;9.646;2023-04-25T11:34:43;10.40;99.90
28725;DHT22;43472;48.980;9.646;2023-04-25T11:39:45;10.40;99.90
28725;DHT22;43472;48.980;9.646;2023-04-25T11:44:48;10.50;99.90
28725;DHT22;43472;48.980;9.646;2023-04-25T11:49:53;10.80;99.90
28725;DHT22;43472;48.980;9.646;2023-04-25T11:54:56;10.90;99.90
28725;DHT22;43472;48.980;9.646;2023-04-25T12:00:24;10.80;99.90
28725;DHT22;43472;48.980;9.646;2023-04-25T12:05:29;10.60;99.90
28725;DHT22;43472;48.980;9.646;2023-04-25T12:10:37;10.60;99.90
28725;DHT22;43472;48.980;9.646;2023-04-25T12:15:40;10.80;99.90
28725;DHT22;43472;48.980;9.646;2023-04-25T12:20:42;11.60;99.90
28725;DHT22;43472;48.980;9.646;2023-04-25T12:25:45;11.90;99.90
28725;DHT22;43472;48.980;9.646;2023-04-25T12:31:02;11.00;99.90
28725;DHT22;43472;48.980;9.646;2023-04-25T12:36:05;10.60;99.90
28725;DHT22;43472;48.980;9.646;2023-04-25T12:41:12;11.10;99.90
28725;DHT22;43472;48.980;9.646;2023-04-25T12:46:13;11.00;99.90
28725;DHT22;43472;48.980;9.646;2023-04-25T12:51:15;11.30;99.90
28725;DHT22;43472;48.980;9.646;2023-04-25T12:56:17;11.10;99.90
28725;DHT22;43472;48.980;9.646;2023-04-25T13:01:24;11.30;99.90
28725;DHT22;43472;48.980;9.646;2023-04-25T13:06:26;11.40;99.90
28725;DHT22;43472;48.980;9.646;2023-04-25T13:11:28;11.30;99.90
28725;DHT22;43472;48.980;9.646;2023-04-25T13:16:31;11.10;99.90
28725;DHT22;43472;48.980;9.646;2023-04-25T13:21:33;10.60;99.90
28725;DHT22;43472;48.980;9.646;2023-04-25T13:26:36;10.50;99.90
28725;DHT22;43472;48.980;9.646;2023-04-25T13:31:37;10.50;99.90
28725;DHT22;43472;48.980;9.646;2023-04-25T13:36:39;10.50;99.90
28725;DHT22;43472;48.980;9.646;2023-04-25T13:41:41;10.50;99.90
28725;DHT22;43472;48.980;9.646;2023-04-25T13:46:43;10.50;99.90
28725;DHT22;43472;48.980;9.646;2023-04-25T13:51:48;10.20;99.90
28725;DHT22;43472;48.980;9.646;2023-04-25T13:56:51;10.30;99.90
28725;DHT22;43472;48.980;9.646;2023-04-25T14:01:54;10.50;99.90
28725;DHT22;43472;48.980;9.646;2023-04-25T14:06:56;11.00;99.90
28725;DHT22;43472;48.980;9.646;2023-04-25T14:11:58;10.20;99.90
28725;DHT22;43472;48.980;9.646;2023-04-25T14:17:00;9.80;99.90
28725;DHT22;43472;48.980;9.646;2023-04-25T14:22:02;9.80;99.90
28725;DHT22;43472;48.980;9.646;2023-04-25T14:27:04;11.90;99.90
28725;DHT22;43472;48.980;9.646;2023-04-25T14:32:06;10.00;99.90
28725;DHT22;43472;48.980;9.646;2023-04-25T14:37:08;10.20;99.90
28725;DHT22;43472;48.980;9.646;2023-04-25T14:42:10;10.10;99.90
28725;DHT22;43472;48.980;9.646;2023-04-25T14:47:12;10.10;99.90
28725;DHT22;43472;48.980;9.646;2023-04-25T15:02:20;10.10;99.90
28725;DHT22;43472;48.980;9.646;2023-04-25T15:07:23;9.90;99.90
28725;DHT22;43472;48.980;9.646;2023-04-25T15:17:29;9.90;99.90
28725;DHT22;43472;48.980;9.646;2023-04-25T15:22:33;10.30;99.90
28725;DHT22;43472;48.980;9.646;2023-04-25T15:27:35;10.70;99.90
28725;DHT22;43472;48.980;9.646;2023-04-25T15:37:44;10.90;99.90
28725;DHT22;43472;48.980;9.646;2023-04-25T15:42:51;11.10;99.90
28725;DHT22;43472;48.980;9.646;2023-04-25T15:47:55;10.60;99.90
28725;DHT22;43472;48.980;9.646;2023-04-25T15:52:57;11.70;99.90
28725;DHT22;43472;48.980;9.646;2023-04-25T15:58:00;10.80;99.90
28725;DHT22;43472;48.980;9.646;2023-04-25T16:03:02;10.80;99.90
28725;DHT22;43472;48.980;9.646;2023-04-25T16:08:05;10.80;99.90
28725;DHT22;43472;48.980;9.646;2023-04-25T16:13:07;10.80;99.90
28725;DHT22;43472;48.980;9.646;2023-04-25T16:18:09;10.90;99.90
28725;DHT22;43472;48.980;9.646;2023-04-25T16:23:11;10.80;99.90
28725;DHT22;43472;48.980;9.646;2023-04-25T16:28:14;11.00;99.90
28725;DHT22;43472;48.980;9.646;2023-04-25T16:33:16;11.10;99.90
28725;DHT22;43472;48.980;9.646;2023-04-25T16:38:18;10.80;99.90
28725;DHT22;43472;48.980;9.646;2023-04-25T16:43:20;10.80;99.90
28725;DHT22;43472;48.980;9.646;2023-04-25T16:48:22;11.00;99.90
28725;DHT22;43472;48.980;9.646;2023-04-25T16:58:27;10.70;99.90
28725;DHT22;43472;48.980;9.646;2023-04-25T17:03:29;11.70;99.90
28725;DHT22;43472;48.980;9.646;2023-04-25T17:08:35;10.60;99.90
28725;DHT22;43472;48.980;9.646;2023-04-25T17:13:37;12.50;99.90
28725;DHT22;43472;48.980;9.646;2023-04-25T17:18:39;10.70;99.90
28725;DHT22;43472;48.980;9.646;2023-04-25T17:23:46;10.70;99.90
28725;DHT22;43472;48.980;9.646;2023-04-25T17:28:48;10.70;99.90
28725;DHT22;43472;48.980;9.646;2023-04-25T17:33:50;10.70;99.90
28725;DHT22;43472;48.980;9.646;2023-04-25T17:38:52;10.50;99.90
28725;DHT22;43472;48.980;9.646;2023-04-25T17:43:54;10.40;99.90
28725;DHT22;43472;48.980;9.646;2023-04-25T17:48:56;10.50;99.90
28725;DHT22;43472;48.980;9.646;2023-04-25T17:53:58;10.50;99.90
28725;DHT22;43472;48.980;9.646;2023-04-25T17:59:00;10.00;99.90
28725;DHT22;43472;48.980;9.646;2023-04-25T18:04:02;10.00;99.90
28725;DHT22;43472;48.980;9.646;2023-04-25T18:09:05;9.80;99.90
28725;DHT22;43472;48.980;9.646;2023-04-25T18:19:21;11.90;99.90
28725;DHT22;43472;48.980;9.646;2023-04-25T18:24:24;9.80;99.90
28725;DHT22;43472;48.980;9.646;2023-04-25T18:29:28;9.50;99.90
28725;DHT22;43472;48.980;9.646;2023-04-25T18:34:34;10.10;99.90
28725;DHT22;43472;48.980;9.646;2023-04-25T18:39:36;9.40;99.90
28725;DHT22;43472;48.980;9.646;2023-04-25T18:44:38;9.30;99.90
28725;DHT22;43472;48.980;9.646;2023-04-25T18:49:40;9.20;99.90
28725;DHT22;43472;48.980;9.646;2023-04-25T18:54:43;9.10;99.90
28725;DHT22;43472;48.980;9.646;2023-04-25T18:59:45;9.10;99.90
28725;DHT22;43472;48.980;9.646;2023-04-25T19:04:47;10.10;99.90
28725;DHT22;43472;48.980;9.646;2023-04-25T19:09:48;9.10;99.90
28725;DHT22;43472;48.980;9.646;2023-04-25T19:14:50;9.10;99.90
28725;DHT22;43472;48.980;9.646;2023-04-25T19:19:53;8.90;99.90
28725;DHT22;43472;48.980;9.646;2023-04-25T19:30:10;8.90;99.90
28725;DHT22;43472;48.980;9.646;2023-04-25T19:35:12;8.90;99.90
28725;DHT22;43472;48.980;9.646;2023-04-25T19:40:16;8.90;99.90
28725;DHT22;43472;48.980;9.646;2023-04-25T19:45:19;8.80;99.90
28725;DHT22;43472;48.980;9.646;2023-04-25T19:50:21;8.80;99.90
28725;DHT22;43472;48.980;9.646;2023-04-25T19:55:23;8.80;99.90
28725;DHT22;43472;48.980;9.646;2023-04-25T20:00:25;8.80;99.90
28725;DHT22;43472;48.980;9.646;2023-04-25T20:05:27;8.80;99.90
28725;DHT22;43472;48.980;9.646;2023-04-25T20:10:29;8.80;99.90
28725;DHT22;43472;48.980;9.646;2023-04-25T20:15:37;8.80;99.90
28725;DHT22;43472;48.980;9.646;2023-04-25T20:20:38;8.90;99.90
28725;DHT22;43472;48.980;9.646;2023-04-25T20:25:40;9.10;99.90
28725;DHT22;43472;48.980;9.646;2023-04-25T20:30:43;8.90;99.90
28725;DHT22;43472;48.980;9.646;2023-04-25T20:35:45;9.00;99.90
28725;DHT22;43472;48.980;9.646;2023-04-25T20:40:47;8.80;99.90
28725;DHT22;43472;48.980;9.646;2023-04-25T20:45:49;8.80;99.90
28725;DHT22;43472;48.980;9.646;2023-04-25T20:50:51;8.70;99.90
28725;DHT22;43472;48.980;9.646;2023-04-25T20:55:53;8.80;99.90
28725;DHT22;43472;48.980;9.646;2023-04-25T21:00:55;8.80;99.90
28725;DHT22;43472;48.980;9.646;2023-04-25T21:05:57;8.70;99.90
28725;DHT22;43472;48.980;9.646;2023-04-25T21:10:59;8.70;99.90
28725;DHT22;43472;48.980;9.646;2023-04-25T21:16:02;8.70;99.90
28725;DHT22;43472;48.980;9.646;2023-04-25T21:21:04;8.60;99.90
28725;DHT22;43472;48.980;9.646;2023-04-25T21:26:06;8.60;99.90
28725;DHT22;43472;48.980;9.646;2023-04-25T21:31:08;8.80;99.90
28725;DHT22;43472;48.980;9.646;2023-04-25T21:36:10;8.70;99.90
28725;DHT22;43472;48.980;9.646;2023-04-25T21:41:12;8.70;99.90
28725;DHT22;43472;48.980;9.646;2023-04-25T21:46:14;8.60;99.90
28725;DHT22;43472;48.980;9.646;2023-04-25T21:51:24;8.60;99.90
28725;DHT22;43472;48.980;9.646;2023-04-25T21:56:26;8.60;99.90
28725;DHT22;43472;48.980;9.646;2023-04-25T22:01:28;8.70;99.90
28725;DHT22;43472;48.980;9.646;2023-04-25T22:06:30;11.80;99.90
28725;DHT22;43472;48.980;9.646;2023-04-25T22:11:32;8.80;99.90
28725;DHT22;43472;48.980;9.646;2023-04-25T22:16:34;8.70;99.90
28725;DHT22;43472;48.980;9.646;2023-04-25T22:21:36;8.40;99.90
28725;DHT22;43472;48.980;9.646;2023-04-25T22:26:38;8.20;99.90
28725;DHT22;43472;48.980;9.646;2023-04-25T22:31:40;8.10;99.90
28725;DHT22;43472;48.980;9.646;2023-04-25T22:36:42;8.20;99.90
28725;DHT22;43472;48.980;9.646;2023-04-25T22:41:44;8.40;99.90
28725;DHT22;43472;48.980;9.646;2023-04-25T22:46:46;8.70;99.90
28725;DHT22;43472;48.980;9.646;2023-04-25T22:51:49;8.60;99.90
28725;DHT22;43472;48.980;9.646;2023-04-25T22:56:55;9.50;99.90
28725;DHT22;43472;48.980;9.646;2023-04-25T23:01:58;8.70;99.90
28725;DHT22;43472;48.980;9.646;2023-04-25T23:07:00;8.60;99.90
28725;DHT22;43472;48.980;9.646;2023-04-25T23:12:02;8.40;99.90
28725;DHT22;43472;48.980;9.646;2023-04-25T23:17:05;8.30;99.90
28725;DHT22;43472;48.980;9.646;2023-04-25T23:22:07;8.50;99.90
28725;DHT22;43472;48.980;9.646;2023-04-25T23:27:09;8.40;99.90
28725;DHT22;43472;48.980;9.646;2023-04-25T23:32:11;8.60;99.90
28725;DHT22;43472;48.980;9.646;2023-04-25T23:37:13;8.60;99.90
28725;DHT22;43472;48.980;9.646;2023-04-25T23:42:16;8.60;99.90
28725;DHT22;43472;48.980;9.646;2023-04-25T23:47:18;8.60;99.90
28725;DHT22;43472;48.980;9.646;2023-04-25T23:52:20;8.40;99.90
28725;DHT22;43472;48.980;9.646;2023-04-25T23:57:21;8.50;99.90
